Time;durP1;ratioP1;P1;durP2;ratioP2;P2;SDS_P1;SDS_P2;PMS_P1;PMS_P2;Temp;Humidity;BMP_temperature;BMP_pressure;BME280_temperature;BME280_humidity;BME280_pressure;Samples;Min_cycle;Max_cycle;Signal;HPM_P1;HPM_P2
2023/04/26 00:02:21;;;;;;;9.20;4.53;;;;;;;;;;4972420;28;20176;-67
2023/04/26 00:04:50;;;;;;;9.47;4.53;;;;;;;;;;4968095;28;20239;-67
2023/04/26 00:07:15;;;;;;;9.07;4.40;;;;;;;;;;4973650;28;20650;-67
2023/04/26 00:09:41;;;;;;;7.33;4.37;;;;;;;;;;4964586;28;20203;-67
2023/04/26 00:12:06;;;;;;;8.10;4.60;;;;;;;;;;4964956;28;20585;-68
2023/04/26 00:14:32;;;;;;;10.80;5.43;;;;;;;;;;4967945;28;20721;-67
2023/04/26 00:16:58;;;;;;;13.03;5.37;;;;;;;;;;4968710;28;20258;-68
2023/04/26 00:19:23;;;;;;;9.20;4.43;;;;;;;;;;4973164;28;20307;-68
2023/04/26 00:21:48;;;;;;;10.27;5.33;;;;;;;;;;4967954;28;20296;-68
2023/04/26 00:24:13;;;;;;;8.13;4.37;;;;;;;;;;4968922;28;20173;-68
2023/04/26 00:26:38;;;;;;;6.00;4.23;;;;;;;;;;4973089;28;20643;-68
2023/04/26 00:29:04;;;;;;;9.87;4.23;;;;;;;;;;4966837;28;20481;-68
2023/04/26 00:31:29;;;;;;;10.00;3.60;;;;;;;;;;4969615;28;20184;-68
2023/04/26 00:33:54;;;;;;;7.77;4.60;;;;;;;;;;4964916;28;20185;-68
2023/04/26 00:36:20;;;;;;;13.20;4.77;;;;;;;;;;4969065;28;20185;-68
2023/04/26 00:38:45;;;;;;;9.57;4.73;;;;;;;;;;4972766;28;20197;-67
2023/04/26 00:41:10;;;;;;;8.67;4.27;;;;;;;;;;4968792;28;20204;-68
2023/04/26 00:43:36;;;;;;;11.10;4.83;;;;;;;;;;4968535;28;20176;-68
2023/04/26 00:46:02;;;;;;;6.17;3.70;;;;;;;;;;4968370;28;20615;-68
2023/04/26 00:48:27;;;;;;;12.73;5.40;;;;;;;;;;4970147;28;20678;-68
2023/04/26 00:50:52;;;;;;;9.37;4.47;;;;;;;;;;4962322;28;20188;-68
2023/04/26 00:53:17;;;;;;;7.77;4.83;;;;;;;;;;4970061;28;20181;-68
2023/04/26 00:55:43;;;;;;;11.57;5.30;;;;;;;;;;4966696;28;20181;-67
2023/04/26 00:58:08;;;;;;;17.03;8.47;;;;;;;;;;4968518;28;20675;-68
2023/04/26 01:00:34;;;;;;;19.47;8.33;;;;;;;;;;4968708;28;20312;-67
2023/04/26 01:02:59;;;;;;;14.53;6.97;;;;;;;;;;4968241;28;20180;-67
2023/04/26 01:05:25;;;;;;;15.63;6.87;;;;;;;;;;4967009;28;20173;-69
2023/04/26 01:07:50;;;;;;;11.10;5.93;;;;;;;;;;4986472;28;20180;-68
2023/04/26 01:10:16;;;;;;;14.47;6.67;;;;;;;;;;4968389;28;20709;-68
2023/04/26 01:12:41;;;;;;;10.27;5.40;;;;;;;;;;4965558;28;20239;-68
2023/04/26 01:15:07;;;;;;;12.47;5.83;;;;;;;;;;4966356;28;20188;-68
2023/04/26 01:17:32;;;;;;;13.40;5.40;;;;;;;;;;4968527;28;20246;-68
2023/04/26 01:19:58;;;;;;;9.57;5.23;;;;;;;;;;4962615;28;20720;-68
2023/04/26 01:22:23;;;;;;;13.40;5.70;;;;;;;;;;4965776;28;20721;-68
2023/04/26 01:24:49;;;;;;;9.07;5.13;;;;;;;;;;4968064;28;20185;-68
2023/04/26 01:27:15;;;;;;;8.97;5.20;;;;;;;;;;4971253;28;20716;-68
2023/04/26 01:29:41;;;;;;;7.67;4.47;;;;;;;;;;4965874;28;20204;-68
2023/04/26 01:32:06;;;;;;;13.30;5.40;;;;;;;;;;4965273;28;20180;-68
2023/04/26 01:34:33;;;;;;;10.23;5.23;;;;;;;;;;4969842;28;20662;-68
2023/04/26 01:36:59;;;;;;;8.07;5.10;;;;;;;;;;4969143;28;20199;-68
2023/04/26 01:39:24;;;;;;;10.60;6.27;;;;;;;;;;4980582;28;20207;-68
2023/04/26 01:41:50;;;;;;;10.67;5.00;;;;;;;;;;4975100;28;20208;-68
2023/04/26 01:44:15;;;;;;;8.90;4.83;;;;;;;;;;4976780;28;20243;-68
2023/04/26 01:46:40;;;;;;;9.00;5.17;;;;;;;;;;4980969;28;20171;-68
2023/04/26 01:49:06;;;;;;;11.27;4.90;;;;;;;;;;4982752;28;20231;-68
2023/04/26 01:51:31;;;;;;;8.67;4.90;;;;;;;;;;4978090;28;20665;-68
2023/04/26 01:53:56;;;;;;;13.83;4.70;;;;;;;;;;4975339;28;20647;-68
2023/04/26 01:56:22;;;;;;;10.00;5.10;;;;;;;;;;4968655;28;20192;-68
2023/04/26 01:58:48;;;;;;;10.77;5.00;;;;;;;;;;4974727;28;20227;-68
2023/04/26 02:01:13;;;;;;;9.07;4.70;;;;;;;;;;4977753;28;20234;-68
2023/04/26 02:03:38;;;;;;;6.40;3.93;;;;;;;;;;4975348;28;20199;-68
2023/04/26 02:06:03;;;;;;;10.43;4.93;;;;;;;;;;4983618;28;20175;-68
2023/04/26 02:08:29;;;;;;;8.07;4.63;;;;;;;;;;4978241;28;20298;-68
2023/04/26 02:10:54;;;;;;;9.40;4.70;;;;;;;;;;4966137;28;20187;-68
2023/04/26 02:13:19;;;;;;;8.37;4.67;;;;;;;;;;4970538;28;20569;-68
2023/04/26 02:15:45;;;;;;;13.13;4.37;;;;;;;;;;4973093;28;20205;-68
2023/04/26 02:18:10;;;;;;;8.07;4.67;;;;;;;;;;4971525;28;20188;-68
2023/04/26 02:20:36;;;;;;;9.77;5.50;;;;;;;;;;4967805;28;20211;-68
2023/04/26 02:23:02;;;;;;;13.63;5.50;;;;;;;;;;4969976;28;20169;-68
2023/04/26 02:25:27;;;;;;;8.93;5.53;;;;;;;;;;4970897;28;20669;-68
2023/04/26 02:27:52;;;;;;;15.27;6.00;;;;;;;;;;4966904;28;20180;-68
2023/04/26 02:30:17;;;;;;;11.07;6.93;;;;;;;;;;4962600;28;20232;-68
2023/04/26 02:32:43;;;;;;;13.73;6.57;;;;;;;;;;4981091;28;20275;-68
2023/04/26 02:35:08;;;;;;;15.10;7.43;;;;;;;;;;4969303;28;20280;-68
2023/04/26 02:37:33;;;;;;;18.73;7.60;;;;;;;;;;4967619;28;20192;-68
2023/04/26 02:39:58;;;;;;;12.67;6.97;;;;;;;;;;4960521;28;20203;-68
2023/04/26 02:42:24;;;;;;;14.13;7.77;;;;;;;;;;4961447;28;20180;-68
2023/04/26 02:44:49;;;;;;;15.57;8.07;;;;;;;;;;4963289;28;20267;-68
2023/04/26 02:47:14;;;;;;;14.00;6.73;;;;;;;;;;4968306;28;20589;-68
2023/04/26 02:49:40;;;;;;;12.73;7.50;;;;;;;;;;4968368;28;20576;-68
2023/04/26 02:52:05;;;;;;;15.80;8.23;;;;;;;;;;4972155;28;20184;-68
2023/04/26 02:54:30;;;;;;;13.33;7.60;;;;;;;;;;4966599;28;20259;-68
2023/04/26 02:56:57;;;;;;;12.00;7.03;;;;;;;;;;4964609;28;20185;-68
2023/04/26 02:59:22;;;;;;;11.57;7.07;;;;;;;;;;4963060;28;20244;-68
2023/04/26 03:01:47;;;;;;;15.17;7.23;;;;;;;;;;4962613;28;20207;-68
2023/04/26 03:04:12;;;;;;;11.70;6.53;;;;;;;;;;4971705;28;20180;-68
2023/04/26 03:06:37;;;;;;;13.77;7.40;;;;;;;;;;4970796;28;20215;-68
2023/04/26 03:09:04;;;;;;;13.37;6.23;;;;;;;;;;4960642;28;20193;-68
2023/04/26 03:11:29;;;;;;;12.87;7.10;;;;;;;;;;4962277;28;20189;-68
2023/04/26 03:13:55;;;;;;;11.90;7.40;;;;;;;;;;4962729;28;20256;-68
2023/04/26 03:16:22;;;;;;;12.27;6.67;;;;;;;;;;4969896;28;20184;-68
2023/04/26 03:18:47;;;;;;;11.97;6.30;;;;;;;;;;4978908;23;20232;-82
2023/04/26 03:21:12;;;;;;;10.67;6.30;;;;;;;;;;4976889;28;20218;-83
2023/04/26 03:23:38;;;;;;;12.10;6.63;;;;;;;;;;4973903;28;20707;-82
2023/04/26 03:26:03;;;;;;;10.20;6.33;;;;;;;;;;4971056;28;20176;-82
2023/04/26 03:28:28;;;;;;;14.23;6.53;;;;;;;;;;4992964;28;20207;-83
2023/04/26 03:30:53;;;;;;;10.77;6.13;;;;;;;;;;4993262;28;20179;-83
2023/04/26 03:33:19;;;;;;;16.93;6.60;;;;;;;;;;4977448;28;20253;-83
2023/04/26 03:35:44;;;;;;;12.83;6.50;;;;;;;;;;4983670;28;20271;-82
2023/04/26 03:38:09;;;;;;;13.13;6.37;;;;;;;;;;4983430;28;20705;-83
2023/04/26 03:40:34;;;;;;;11.37;6.90;;;;;;;;;;4970427;28;20203;-83
2023/04/26 03:43:00;;;;;;;15.67;6.10;;;;;;;;;;4988294;28;20205;-83
2023/04/26 03:45:25;;;;;;;11.93;6.17;;;;;;;;;;4992203;28;20175;-83
2023/04/26 03:47:51;;;;;;;12.27;5.80;;;;;;;;;;4976855;28;20184;-83
2023/04/26 03:50:16;;;;;;;11.77;6.37;;;;;;;;;;4974795;28;20212;-83
2023/04/26 03:52:41;;;;;;;10.47;6.27;;;;;;;;;;4974215;28;20195;-83
2023/04/26 03:55:08;;;;;;;10.30;5.40;;;;;;;;;;4986419;28;20194;-83
2023/04/26 03:57:34;;;;;;;11.23;5.77;;;;;;;;;;4975177;28;20183;-83
2023/04/26 03:59:59;;;;;;;10.17;5.30;;;;;;;;;;4968521;28;20339;-83
2023/04/26 04:02:24;;;;;;;16.90;6.87;;;;;;;;;;4983205;28;20271;-84
2023/04/26 04:04:49;;;;;;;11.30;6.10;;;;;;;;;;4975623;28;20195;-83
2023/04/26 04:07:15;;;;;;;13.83;6.07;;;;;;;;;;4986433;28;20207;-83
2023/04/26 04:09:40;;;;;;;11.27;6.47;;;;;;;;;;4992711;28;20204;-83
2023/04/26 04:12:06;;;;;;;11.10;6.00;;;;;;;;;;4979983;28;20658;-82
2023/04/26 04:14:31;;;;;;;14.30;6.97;;;;;;;;;;4981003;28;20215;-83
2023/04/26 04:16:58;;;;;;;13.30;6.70;;;;;;;;;;4993429;28;20194;-83
2023/04/26 04:19:23;;;;;;;12.13;5.53;;;;;;;;;;4993133;28;20786;-83
2023/04/26 04:21:49;;;;;;;12.33;6.10;;;;;;;;;;4977854;28;20281;-83
2023/04/26 04:24:15;;;;;;;10.93;5.77;;;;;;;;;;4989693;28;20184;-83
2023/04/26 04:26:40;;;;;;;11.60;5.30;;;;;;;;;;4974531;28;20208;-83
2023/04/26 04:29:07;;;;;;;13.00;6.90;;;;;;;;;;4979814;28;20200;-82
2023/04/26 04:31:34;;;;;;;14.00;6.80;;;;;;;;;;4975214;28;20179;-82
2023/04/26 04:33:59;;;;;;;11.70;6.10;;;;;;;;;;4973431;28;20179;-82
2023/04/26 04:36:25;;;;;;;9.00;5.10;;;;;;;;;;4986947;28;20195;-81
2023/04/26 04:38:50;;;;;;;12.73;5.90;;;;;;;;;;4990799;28;20200;-82
2023/04/26 04:41:15;;;;;;;10.10;6.17;;;;;;;;;;4984307;28;20211;-82
2023/04/26 04:43:40;;;;;;;11.73;6.07;;;;;;;;;;4972994;28;20175;-83
2023/04/26 04:46:06;;;;;;;15.77;6.00;;;;;;;;;;4980239;28;20176;-81
2023/04/26 04:48:32;;;;;;;10.90;5.40;;;;;;;;;;4978521;28;20199;-81
2023/04/26 04:50:57;;;;;;;10.63;5.30;;;;;;;;;;4976378;28;20652;-81
2023/04/26 04:53:22;;;;;;;10.77;4.33;;;;;;;;;;4979245;28;20199;-82
2023/04/26 04:55:48;;;;;;;7.97;4.70;;;;;;;;;;4992829;28;20226;-82
2023/04/26 04:58:13;;;;;;;8.70;4.97;;;;;;;;;;4993447;28;20207;-81
2023/04/26 05:00:39;;;;;;;12.30;6.00;;;;;;;;;;4988477;28;20210;-81
2023/04/26 05:03:04;;;;;;;12.23;6.30;;;;;;;;;;4981445;28;20172;-82
2023/04/26 05:05:29;;;;;;;12.33;5.30;;;;;;;;;;5003611;28;20180;-82
2023/04/26 05:07:54;;;;;;;9.10;4.40;;;;;;;;;;5003248;28;20276;-82
2023/04/26 05:10:20;;;;;;;11.63;5.27;;;;;;;;;;4978314;28;20213;-81
2023/04/26 05:12:45;;;;;;;15.97;4.90;;;;;;;;;;4977851;28;20183;-82
2023/04/26 05:15:10;;;;;;;9.57;4.07;;;;;;;;;;4982227;28;20184;-81
2023/04/26 05:17:36;;;;;;;12.30;4.90;;;;;;;;;;4994357;28;20645;-82
2023/04/26 05:20:05;;;;;;;11.10;4.63;;;;;;;;;;4990020;28;20242;-81
2023/04/26 05:22:30;;;;;;;9.37;3.97;;;;;;;;;;4975448;28;20653;-82
2023/04/26 05:24:55;;;;;;;7.77;4.50;;;;;;;;;;4976604;28;20227;-82
2023/04/26 05:27:21;;;;;;;7.47;3.93;;;;;;;;;;4979909;28;20607;-82
2023/04/26 05:29:46;;;;;;;12.93;5.33;;;;;;;;;;4995284;28;20245;-81
2023/04/26 05:32:11;;;;;;;8.07;4.07;;;;;;;;;;4995403;28;20172;-82
2023/04/26 05:34:37;;;;;;;8.33;4.37;;;;;;;;;;4975650;28;20554;-82
2023/04/26 05:37:02;;;;;;;11.20;4.63;;;;;;;;;;4992923;28;20284;-81
2023/04/26 05:39:27;;;;;;;5.17;3.80;;;;;;;;;;4978324;28;20261;-79
2023/04/26 05:41:53;;;;;;;7.87;3.90;;;;;;;;;;4992763;28;20278;-81
2023/04/26 05:44:18;;;;;;;11.27;3.93;;;;;;;;;;4977695;28;20584;-80
2023/04/26 05:46:43;;;;;;;8.03;4.90;;;;;;;;;;4994790;28;20842;-81
2023/04/26 05:49:09;;;;;;;8.73;4.70;;;;;;;;;;4983230;28;20210;-79
2023/04/26 05:51:34;;;;;;;10.37;5.60;;;;;;;;;;4993407;28;20184;-81
2023/04/26 05:53:59;;;;;;;7.63;4.83;;;;;;;;;;4991294;28;20238;-80
2023/04/26 05:56:25;;;;;;;11.33;4.40;;;;;;;;;;4994103;28;20187;-81
2023/04/26 05:58:50;;;;;;;12.07;4.97;;;;;;;;;;4977481;28;20206;-81
2023/04/26 06:01:15;;;;;;;14.30;4.97;;;;;;;;;;4973571;28;20223;-81
2023/04/26 06:03:41;;;;;;;8.03;4.10;;;;;;;;;;4978793;28;20602;-81
2023/04/26 06:06:06;;;;;;;8.63;3.80;;;;;;;;;;4976375;28;20175;-81
2023/04/26 06:08:32;;;;;;;6.10;3.53;;;;;;;;;;4974588;28;20200;-81
2023/04/26 06:10:57;;;;;;;7.73;4.80;;;;;;;;;;4971891;28;20190;-81
2023/04/26 06:13:22;;;;;;;7.67;4.10;;;;;;;;;;4988719;28;20264;-80
2023/04/26 06:15:47;;;;;;;6.30;4.33;;;;;;;;;;4976527;28;20187;-80
2023/04/26 06:18:13;;;;;;;8.37;3.63;;;;;;;;;;4965693;28;20194;-80
2023/04/26 06:20:38;;;;;;;9.07;3.93;;;;;;;;;;4993969;28;20676;-81
2023/04/26 06:23:03;;;;;;;5.20;3.80;;;;;;;;;;4989025;28;20176;-80
2023/04/26 06:25:28;;;;;;;7.47;3.47;;;;;;;;;;4993219;28;20272;-80
2023/04/26 06:27:54;;;;;;;6.93;3.50;;;;;;;;;;4976415;28;20184;-79
2023/04/26 06:30:19;;;;;;;6.57;3.20;;;;;;;;;;4972517;28;20199;-79
2023/04/26 06:32:44;;;;;;;7.80;3.63;;;;;;;;;;4974550;28;20255;-79
2023/04/26 06:35:10;;;;;;;7.67;3.63;;;;;;;;;;4985144;28;20376;-79
2023/04/26 06:37:36;;;;;;;6.93;3.70;;;;;;;;;;4992266;28;20187;-79
2023/04/26 06:40:01;;;;;;;5.43;3.37;;;;;;;;;;4968053;28;20200;-79
2023/04/26 06:42:26;;;;;;;7.17;3.13;;;;;;;;;;4990843;28;20222;-79
2023/04/26 06:44:51;;;;;;;6.43;3.30;;;;;;;;;;4994269;28;20557;-79
2023/04/26 06:47:16;;;;;;;17.53;3.90;;;;;;;;;;4993062;28;20175;-79
2023/04/26 06:49:42;;;;;;;10.27;3.97;;;;;;;;;;4964083;28;20192;-78
2023/04/26 06:52:07;;;;;;;10.30;4.53;;;;;;;;;;4963746;28;20551;-79
2023/04/26 06:54:32;;;;;;;9.07;3.10;;;;;;;;;;4987246;28;20663;-79
2023/04/26 06:56:58;;;;;;;5.73;2.87;;;;;;;;;;4973963;28;20195;-79
2023/04/26 06:59:23;;;;;;;5.40;3.37;;;;;;;;;;4975319;28;20250;-79
2023/04/26 07:01:48;;;;;;;5.00;3.20;;;;;;;;;;4972661;28;20215;-79
2023/04/26 07:04:15;;;;;;;8.37;4.27;;;;;;;;;;4975250;28;20192;-79
2023/04/26 07:06:41;;;;;;;4.57;2.90;;;;;;;;;;4991065;28;20211;-79
2023/04/26 07:09:07;;;;;;;4.30;2.67;;;;;;;;;;4988645;28;20215;-81
2023/04/26 07:11:32;;;;;;;4.87;3.00;;;;;;;;;;4992505;28;20175;-80
2023/04/26 07:13:57;;;;;;;5.23;3.20;;;;;;;;;;4990193;28;20195;-80
2023/04/26 07:16:23;;;;;;;6.50;2.73;;;;;;;;;;4972439;28;20194;-80
2023/04/26 07:18:48;;;;;;;7.33;3.23;;;;;;;;;;4991093;28;20204;-80
2023/04/26 07:21:13;;;;;;;8.37;2.93;;;;;;;;;;4974360;28;20266;-80
2023/04/26 07:23:39;;;;;;;5.53;2.83;;;;;;;;;;4989451;28;20558;-80
2023/04/26 07:26:04;;;;;;;3.87;2.93;;;;;;;;;;4975553;28;20179;-80
2023/04/26 07:28:30;;;;;;;5.07;2.37;;;;;;;;;;4975273;28;20207;-80
2023/04/26 07:30:56;;;;;;;3.00;2.10;;;;;;;;;;4993098;28;20604;-79
2023/04/26 07:33:21;;;;;;;4.70;2.37;;;;;;;;;;4975463;28;20188;-80
2023/04/26 07:35:57;;;;;;;7.03;2.60;;;;;;;;;;4985984;28;20559;-79
2023/04/26 07:38:23;;;;;;;5.33;2.67;;;;;;;;;;4987075;28;20245;-80
2023/04/26 07:40:49;;;;;;;6.13;2.33;;;;;;;;;;4988169;28;20207;-80
2023/04/26 07:43:14;;;;;;;6.50;3.30;;;;;;;;;;4988675;28;20175;-79
2023/04/26 07:45:40;;;;;;;8.23;3.30;;;;;;;;;;4988843;28;20179;-79
2023/04/26 07:48:05;;;;;;;5.15;2.20;;;;;;;;;;4974033;28;20645;-79
2023/04/26 07:50:30;;;;;;;3.13;1.50;;;;;;;;;;4992668;28;20196;-79
2023/04/26 07:52:56;;;;;;;3.17;1.73;;;;;;;;;;4970858;28;20184;-79
2023/04/26 07:55:21;;;;;;;3.55;1.70;;;;;;;;;;4974910;28;20187;-78
2023/04/26 07:57:46;;;;;;;5.10;1.98;;;;;;;;;;4989965;28;20167;-77
2023/04/26 08:00:12;;;;;;;2.45;1.45;;;;;;;;;;5011106;28;20219;-78
2023/04/26 08:02:37;;;;;;;2.17;1.52;;;;;;;;;;4987152;28;20180;-79
2023/04/26 08:05:02;;;;;;;4.90;1.38;;;;;;;;;;4992609;28;20207;-76
2023/04/26 08:07:28;;;;;;;4.55;1.60;;;;;;;;;;4981046;28;20239;-79
2023/04/26 08:09:53;;;;;;;7.30;1.70;;;;;;;;;;4984274;28;20215;-81
2023/04/26 08:12:18;;;;;;;6.40;1.90;;;;;;;;;;4985678;28;20184;-81
2023/04/26 08:14:43;;;;;;;4.90;1.88;;;;;;;;;;5008160;28;20180;-82
2023/04/26 08:17:09;;;;;;;3.75;1.58;;;;;;;;;;4975382;28;20655;-80
2023/04/26 08:19:35;;;;;;;9.38;1.83;;;;;;;;;;4974666;28;20208;-81
2023/04/26 08:22:00;;;;;;;1.63;1.10;;;;;;;;;;4980072;28;20214;-81
2023/04/26 08:24:25;;;;;;;3.13;1.50;;;;;;;;;;5001489;28;20198;-81
2023/04/26 08:26:50;;;;;;;2.35;1.30;;;;;;;;;;4992340;28;20210;-80
2023/04/26 08:29:16;;;;;;;2.17;1.35;;;;;;;;;;4982930;28;20195;-80
2023/04/26 08:31:41;;;;;;;2.50;1.27;;;;;;;;;;4982183;28;20175;-81
2023/04/26 08:34:10;;;;;;;3.80;1.10;;;;;;;;;;4981198;28;20207;-79
2023/04/26 08:36:35;;;;;;;2.75;1.10;;;;;;;;;;4993867;28;20180;-80
2023/04/26 08:39:00;;;;;;;3.47;1.40;;;;;;;;;;4995576;28;20225;-79
2023/04/26 08:41:26;;;;;;;3.88;1.20;;;;;;;;;;4994245;28;20200;-79
2023/04/26 08:43:52;;;;;;;3.97;1.02;;;;;;;;;;4977886;28;20441;-79
2023/04/26 08:46:18;;;;;;;4.10;1.65;;;;;;;;;;4990286;28;20191;-78
2023/04/26 08:48:46;;;;;;;2.67;1.08;;;;;;;;;;4990323;28;20199;-79
2023/04/26 08:51:12;;;;;;;1.70;1.33;;;;;;;;;;4973999;28;20660;-80
2023/04/26 08:53:38;;;;;;;3.70;1.35;;;;;;;;;;4993525;28;20190;-80
2023/04/26 08:56:03;;;;;;;5.18;1.23;;;;;;;;;;4975657;28;20646;-79
2023/04/26 08:58:29;;;;;;;2.90;0.93;;;;;;;;;;4995111;28;20207;-80
2023/04/26 09:00:54;;;;;;;3.83;1.08;;;;;;;;;;4996000;28;20258;-81
2023/04/26 09:03:21;;;;;;;4.15;1.33;;;;;;;;;;4996679;28;20653;-80
2023/04/26 09:05:48;;;;;;;4.35;1.58;;;;;;;;;;4995979;28;20175;-79
2023/04/26 09:08:17;;;;;;;2.38;1.30;;;;;;;;;;4996522;28;20211;-80
2023/04/26 09:10:42;;;;;;;5.18;1.58;;;;;;;;;;4996318;28;20184;-80
2023/04/26 09:13:07;;;;;;;4.22;1.40;;;;;;;;;;4995019;28;20190;-79
2023/04/26 09:15:33;;;;;;;2.33;1.27;;;;;;;;;;4995041;28;20171;-79
2023/04/26 09:18:18;;;;;;;2.63;1.50;;;;;;;;;;4996583;28;20180;-79
2023/04/26 09:20:44;;;;;;;2.03;1.40;;;;;;;;;;4981518;23;20764;-68
2023/04/26 09:23:09;;;;;;;1.85;1.63;;;;;;;;;;4974361;28;20287;-67
2023/04/26 09:25:35;;;;;;;4.68;1.75;;;;;;;;;;4977227;28;20175;-68
2023/04/26 09:28:00;;;;;;;7.07;1.45;;;;;;;;;;4973750;28;20267;-67
2023/04/26 09:30:26;;;;;;;2.58;1.27;;;;;;;;;;4968561;28;20200;-68
2023/04/26 09:32:57;;;;;;;3.53;1.70;;;;;;;;;;4971465;28;20187;-67
2023/04/26 09:35:36;;;;;;;9.47;1.77;;;;;;;;;;4968818;28;20184;-68
2023/04/26 09:38:01;;;;;;;3.47;1.63;;;;;;;;;;4961246;28;20192;-67
2023/04/26 09:40:28;;;;;;;2.10;1.63;;;;;;;;;;4970407;28;20220;-67
2023/04/26 09:42:57;;;;;;;3.60;1.63;;;;;;;;;;4964713;28;20203;-67
2023/04/26 09:45:23;;;;;;;2.30;1.40;;;;;;;;;;4965332;28;20646;-67
2023/04/26 09:47:48;;;;;;;4.53;1.77;;;;;;;;;;4968087;28;20187;-67
2023/04/26 09:50:24;;;;;;;2.97;1.67;;;;;;;;;;4968459;28;20630;-67
2023/04/26 09:52:49;;;;;;;3.43;1.60;;;;;;;;;;4967382;28;20533;-67
2023/04/26 09:55:24;;;;;;;5.97;1.50;;;;;;;;;;4968590;28;20248;-67
2023/04/26 09:57:49;;;;;;;3.10;1.23;;;;;;;;;;4972961;28;20172;-67
2023/04/26 10:00:15;;;;;;;4.50;1.40;;;;;;;;;;4969094;28;20212;-67
2023/04/26 10:02:40;;;;;;;6.00;1.77;;;;;;;;;;4967648;28;20177;-67
2023/04/26 10:05:06;;;;;;;2.97;1.13;;;;;;;;;;4966601;28;20258;-68
2023/04/26 10:07:32;;;;;;;3.53;1.40;;;;;;;;;;4969828;28;20212;-67
2023/04/26 10:09:58;;;;;;;2.33;1.47;;;;;;;;;;4967887;28;20231;-67
2023/04/26 10:12:23;;;;;;;5.13;1.77;;;;;;;;;;4967622;28;20208;-68
2023/04/26 10:14:48;;;;;;;2.30;1.40;;;;;;;;;;4971401;28;20176;-68
2023/04/26 10:17:13;;;;;;;3.40;0.90;;;;;;;;;;4968771;28;20183;-68
2023/04/26 10:19:40;;;;;;;3.43;1.03;;;;;;;;;;4965219;28;20764;-67
2023/04/26 10:22:11;;;;;;;8.52;1.40;;;;;;;;;;4962772;28;20238;-67
2023/04/26 10:24:36;;;;;;;3.50;1.00;;;;;;;;;;4968378;28;20713;-67
2023/04/26 10:27:03;;;;;;;3.58;0.95;;;;;;;;;;4964619;28;20181;-68
2023/04/26 10:29:46;;;;;;;1.40;1.00;;;;;;;;;;4966797;28;20585;-67
2023/04/26 10:32:15;;;;;;;1.85;0.77;;;;;;;;;;4967525;28;20184;-67
2023/04/26 10:34:41;;;;;;;1.27;1.08;;;;;;;;;;4968955;28;20539;-67
2023/04/26 10:37:07;;;;;;;2.95;1.52;;;;;;;;;;4964512;28;20191;-67
2023/04/26 10:39:32;;;;;;;3.47;1.40;;;;;;;;;;4970499;28;20208;-67
2023/04/26 10:42:23;;;;;;;3.00;1.95;;;;;;;;;;4967114;28;20208;-67
2023/04/26 10:44:49;;;;;;;2.90;1.55;;;;;;;;;;4967362;28;20177;-67
2023/04/26 10:47:30;;;;;;;1.25;0.80;;;;;;;;;;4970352;28;20231;-67
2023/04/26 10:50:09;;;;;;;1.25;0.88;;;;;;;;;;4970581;28;20188;-67
2023/04/26 10:52:35;;;;;;;3.08;0.90;;;;;;;;;;4969147;28;20184;-67
2023/04/26 10:55:01;;;;;;;2.35;1.05;;;;;;;;;;4968166;28;20196;-67
2023/04/26 10:57:45;;;;;;;1.83;1.20;;;;;;;;;;4962916;28;20267;-67
2023/04/26 11:00:19;;;;;;;2.63;1.50;;;;;;;;;;4965694;28;20199;-67
2023/04/26 11:02:45;;;;;;;4.90;1.55;;;;;;;;;;4966047;28;20720;-67
2023/04/26 11:05:31;;;;;;;4.45;1.80;;;;;;;;;;4964415;28;20476;-67
2023/04/26 11:08:06;;;;;;;7.32;1.20;;;;;;;;;;4963665;28;20267;-67
2023/04/26 11:10:31;;;;;;;2.65;1.90;;;;;;;;;;4964809;28;20196;-67
2023/04/26 11:13:01;;;;;;;3.90;1.90;;;;;;;;;;4965802;28;20176;-67
2023/04/26 11:15:27;;;;;;;3.38;1.55;;;;;;;;;;4966178;28;20188;-67
2023/04/26 11:17:52;;;;;;;3.55;1.38;;;;;;;;;;4965578;28;20172;-67
2023/04/26 11:20:18;;;;;;;4.07;1.50;;;;;;;;;;4965257;28;20239;-67
2023/04/26 11:22:43;;;;;;;3.08;1.27;;;;;;;;;;4965960;28;20223;-67
2023/04/26 11:25:08;;;;;;;3.13;1.50;;;;;;;;;;4970274;28;20180;-67
2023/04/26 11:27:33;;;;;;;4.75;1.17;;;;;;;;;;4966991;28;20184;-67
2023/04/26 11:30:01;;;;;;;2.65;1.70;;;;;;;;;;4966169;28;21035;-67
2023/04/26 11:32:26;;;;;;;2.35;0.95;;;;;;;;;;4964507;28;20212;-67
2023/04/26 11:34:51;;;;;;;3.17;1.67;;;;;;;;;;4964353;28;20210;-67
2023/04/26 11:37:16;;;;;;;2.08;1.20;;;;;;;;;;4960790;28;20808;-67
2023/04/26 11:39:43;;;;;;;3.70;1.58;;;;;;;;;;4966783;28;20633;-67
2023/04/26 11:42:12;;;;;;;2.42;1.67;;;;;;;;;;4969106;28;20212;-67
2023/04/26 11:44:39;;;;;;;2.35;1.63;;;;;;;;;;4965807;28;20587;-67
2023/04/26 11:47:05;;;;;;;3.08;1.40;;;;;;;;;;4969873;28;20169;-67
2023/04/26 11:49:31;;;;;;;2.33;1.25;;;;;;;;;;4958877;28;20724;-67
2023/04/26 11:51:56;;;;;;;4.75;1.33;;;;;;;;;;4968850;28;20180;-67
2023/04/26 11:54:32;;;;;;;3.42;1.20;;;;;;;;;;4957750;28;20697;-67
2023/04/26 11:56:57;;;;;;;1.48;1.10;;;;;;;;;;4965262;28;20210;-68
2023/04/26 11:59:29;;;;;;;2.83;1.13;;;;;;;;;;4963320;28;20208;-68
2023/04/26 12:01:56;;;;;;;3.10;1.20;;;;;;;;;;4966756;28;20258;-67
2023/04/26 12:04:28;;;;;;;1.77;1.67;;;;;;;;;;4960551;28;20552;-68
2023/04/26 12:06:53;;;;;;;3.13;2.05;;;;;;;;;;4967837;28;20188;-67
2023/04/26 12:09:29;;;;;;;2.03;1.30;;;;;;;;;;4964709;28;20200;-67
2023/04/26 12:11:58;;;;;;;3.80;1.67;;;;;;;;;;4964045;28;20540;-67
2023/04/26 12:14:33;;;;;;;3.20;1.70;;;;;;;;;;4958548;28;20200;-67
2023/04/26 12:16:59;;;;;;;2.85;1.40;;;;;;;;;;4960369;28;20237;-67
2023/04/26 12:19:25;;;;;;;4.13;1.60;;;;;;;;;;4967162;28;20212;-67
2023/04/26 12:21:52;;;;;;;2.63;1.70;;;;;;;;;;4967863;28;20219;-67
2023/04/26 12:24:24;;;;;;;2.92;1.70;;;;;;;;;;4962335;28;20605;-67
2023/04/26 12:26:49;;;;;;;1.75;1.33;;;;;;;;;;4961064;28;20627;-67
2023/04/26 12:29:14;;;;;;;2.60;1.60;;;;;;;;;;4962844;28;20231;-67
2023/04/26 12:31:40;;;;;;;3.17;1.63;;;;;;;;;;4967572;28;20184;-68
2023/04/26 12:34:05;;;;;;;4.03;1.80;;;;;;;;;;4957783;28;20679;-67
2023/04/26 12:36:30;;;;;;;3.53;1.70;;;;;;;;;;4955896;28;21835;-67
2023/04/26 12:38:56;;;;;;;3.63;1.33;;;;;;;;;;4961672;28;20211;-67
2023/04/26 12:41:22;;;;;;;3.80;1.40;;;;;;;;;;4966029;28;20200;-67
2023/04/26 12:43:47;;;;;;;1.25;1.10;;;;;;;;;;4967398;28;20239;-67
2023/04/26 12:46:12;;;;;;;2.00;1.30;;;;;;;;;;4968335;28;20184;-67
2023/04/26 12:48:37;;;;;;;2.25;1.27;;;;;;;;;;4965331;28;20212;-68
2023/04/26 12:51:02;;;;;;;3.85;1.25;;;;;;;;;;4967925;28;20746;-67
2023/04/26 12:53:28;;;;;;;2.22;1.52;;;;;;;;;;4968579;28;20192;-67
2023/04/26 12:55:53;;;;;;;2.25;1.67;;;;;;;;;;4968023;28;20272;-67
2023/04/26 12:58:18;;;;;;;3.60;1.50;;;;;;;;;;4968862;28;20268;-67
2023/04/26 13:00:43;;;;;;;4.32;1.70;;;;;;;;;;4968004;28;20216;-67
2023/04/26 13:03:10;;;;;;;3.38;1.30;;;;;;;;;;4969203;28;20199;-67
2023/04/26 13:05:35;;;;;;;3.13;1.75;;;;;;;;;;4969855;28;20195;-68
2023/04/26 13:08:00;;;;;;;2.45;1.48;;;;;;;;;;4973658;28;20176;-67
2023/04/26 13:10:26;;;;;;;2.80;1.20;;;;;;;;;;4968408;28;20203;-67
2023/04/26 13:12:52;;;;;;;2.83;1.33;;;;;;;;;;4972862;28;20179;-67
2023/04/26 13:15:18;;;;;;;8.15;2.20;;;;;;;;;;4971365;28;20176;-67
2023/04/26 13:17:44;;;;;;;3.78;2.10;;;;;;;;;;4972095;28;20260;-68
2023/04/26 13:20:09;;;;;;;3.17;1.88;;;;;;;;;;4972025;28;20204;-68
2023/04/26 13:22:34;;;;;;;2.85;1.85;;;;;;;;;;4970010;28;20216;-67
2023/04/26 13:25:00;;;;;;;2.30;1.58;;;;;;;;;;4967939;28;20176;-67
2023/04/26 13:27:25;;;;;;;2.67;1.30;;;;;;;;;;4972880;28;20197;-67
2023/04/26 13:29:51;;;;;;;3.58;1.40;;;;;;;;;;4973042;28;20192;-67
2023/04/26 13:32:16;;;;;;;4.75;1.98;;;;;;;;;;4971737;28;20192;-67
2023/04/26 13:34:44;;;;;;;3.22;1.42;;;;;;;;;;4970657;28;20176;-68
2023/04/26 13:37:11;;;;;;;1.70;1.52;;;;;;;;;;4971601;28;20188;-67
2023/04/26 13:39:36;;;;;;;5.25;1.40;;;;;;;;;;4969964;28;20753;-67
2023/04/26 13:42:02;;;;;;;4.40;1.90;;;;;;;;;;4972594;28;20204;-67
2023/04/26 13:44:27;;;;;;;2.95;1.38;;;;;;;;;;4969499;28;20558;-68
2023/04/26 13:46:53;;;;;;;1.98;1.40;;;;;;;;;;4968258;28;20176;-67
2023/04/26 13:49:21;;;;;;;1.85;1.15;;;;;;;;;;4970919;28;20212;-66
2023/04/26 13:51:46;;;;;;;3.17;1.65;;;;;;;;;;4969862;28;20180;-68
2023/04/26 13:54:11;;;;;;;1.88;1.15;;;;;;;;;;4970414;28;20669;-66
2023/04/26 13:56:36;;;;;;;1.90;1.13;;;;;;;;;;4970591;28;20189;-66
2023/04/26 13:59:04;;;;;;;2.95;1.65;;;;;;;;;;4970892;28;20192;-66
2023/04/26 14:01:29;;;;;;;4.35;1.30;;;;;;;;;;4969069;28;20231;-67
2023/04/26 14:03:54;;;;;;;5.53;2.13;;;;;;;;;;4972308;28;20172;-67
2023/04/26 14:06:20;;;;;;;2.75;1.95;;;;;;;;;;4968618;28;20223;-67
2023/04/26 14:08:45;;;;;;;3.97;1.52;;;;;;;;;;4972361;28;20224;-67
2023/04/26 14:11:11;;;;;;;4.60;1.63;;;;;;;;;;4971944;28;20204;-67
2023/04/26 14:13:37;;;;;;;4.75;1.60;;;;;;;;;;4970274;28;20271;-67
2023/04/26 14:16:02;;;;;;;4.88;1.95;;;;;;;;;;4970234;28;20328;-67
2023/04/26 14:18:27;;;;;;;1.92;1.40;;;;;;;;;;4969775;28;20179;-67
2023/04/26 14:20:52;;;;;;;2.17;1.40;;;;;;;;;;4969624;28;20696;-67
2023/04/26 14:23:18;;;;;;;3.92;1.50;;;;;;;;;;4971542;28;20267;-67
2023/04/26 14:25:43;;;;;;;3.22;1.58;;;;;;;;;;4971416;28;20191;-67
2023/04/26 14:28:08;;;;;;;2.65;1.40;;;;;;;;;;4972287;28;20315;-67
2023/04/26 14:30:33;;;;;;;2.28;1.77;;;;;;;;;;4971856;28;20232;-68
2023/04/26 14:32:58;;;;;;;3.20;1.67;;;;;;;;;;4968298;28;20176;-67